KLRF

Little Rock AFB Airport

Jacksonville, Arkansas, USA
METAR KLRF 160956Z AUTO 00000KT 10SM CLR M04/M05 A3016 RMK AO2 SLP218 T10401054
Observed Flight Rules
Dec-16 @ 09:56 UTC (an hour ago) Visual Flight Rules
Wind Visibility Clouds
Calm 10 miles
  • Clear skies
Temperatures Readings
Current -4°C / 25°F
Dewpoint -5°C / 23°F
Humidity 93%
Altimeter 30.16" Hg
Pressure 1021.8 hPa
Elevation 95
METAR KLRF 160956Z AUTO 00000KT 10SM CLR M04/M05 A3016 RMK AO2 SLP218 T10401054
Observed Flight Rules
Dec-16 @ 09:56 UTC
(an hour ago)
VFR
Wind Visibility
Calm 10 miles
Clouds
  • Clear skies
Temperature Dewpoint
-4°C / 25°F -5°C / 23°F
Humidity Altimeter Pressure
93% 30.16" Hg 1021.8 hPa